createdAt,value
2022-08-17T00:00:18.265Z,53.69
2022-08-17T00:03:00.032Z,53.89
2022-08-17T00:05:36.664Z,54.24
2022-08-17T00:08:03.813Z,54.43
2022-08-17T00:10:32.262Z,54.80
2022-08-17T00:12:59.756Z,54.91
2022-08-17T00:15:26.572Z,55.19
2022-08-17T00:17:53.267Z,55.42
2022-08-17T00:20:20.489Z,54.97
2022-08-17T00:23:12.133Z,54.54
2022-08-17T00:25:40.786Z,54.04
2022-08-17T00:28:07.711Z,54.17
2022-08-17T00:30:52.880Z,54.27
2022-08-17T00:33:25.954Z,54.31
2022-08-17T00:35:53.235Z,54.07
2022-08-17T00:38:20.307Z,54.19
2022-08-17T00:40:59.294Z,54.51
2022-08-17T00:43:45.310Z,54.96
2022-08-17T00:46:33.881Z,54.84
2022-08-17T00:49:00.580Z,55.12
2022-08-17T00:51:50.507Z,54.90
2022-08-17T00:54:24.765Z,54.96
2022-08-17T00:56:59.492Z,54.90
2022-08-17T00:59:30.929Z,55.43
2022-08-17T01:01:58.241Z,55.80
2022-08-17T01:04:25.847Z,55.62
2022-08-17T01:06:53.250Z,55.24
2022-08-17T01:09:19.953Z,54.81
2022-08-17T01:11:52.066Z,55.20
2022-08-17T01:14:21.431Z,55.32
2022-08-17T01:16:50.548Z,55.07
2022-08-17T01:19:20.287Z,55.10
2022-08-17T01:22:01.455Z,54.87
2022-08-17T01:24:28.268Z,54.82
2022-08-17T01:26:56.670Z,54.71
2022-08-17T01:29:24.800Z,54.96
2022-08-17T01:31:55.872Z,55.09
2022-08-17T01:34:22.774Z,55.19
2022-08-17T01:36:54.828Z,55.47
2022-08-17T01:39:27.096Z,55.59
2022-08-17T01:41:58.973Z,55.77
2022-08-17T01:44:27.281Z,55.48
2022-08-17T01:46:54.549Z,55.46
2022-08-17T01:49:21.377Z,55.24
2022-08-17T01:51:48.491Z,55.19
2022-08-17T01:54:18.083Z,54.76
2022-08-17T01:56:47.862Z,55.22
2022-08-17T01:59:16.162Z,55.14
2022-08-17T02:01:43.678Z,55.43
2022-08-17T02:04:10.889Z,55.47
2022-08-17T02:06:44.818Z,55.31
2022-08-17T02:09:16.439Z,55.43
2022-08-17T02:11:43.855Z,55.11
2022-08-17T02:14:12.256Z,55.04
2022-08-17T02:16:40.946Z,54.75
2022-08-17T02:19:09.970Z,54.86
2022-08-17T02:21:38.086Z,55.14
2022-08-17T02:24:06.974Z,55.26
2022-08-17T02:26:33.629Z,55.10
2022-08-17T02:29:00.291Z,55.21
2022-08-17T02:31:26.938Z,55.55
2022-08-17T02:34:03.487Z,55.59
2022-08-17T02:36:32.323Z,55.40
2022-08-17T02:39:00.753Z,55.56
2022-08-17T02:41:27.783Z,55.61
2022-08-17T02:43:54.392Z,55.54
2022-08-17T02:46:21.112Z,55.33
2022-08-17T02:48:47.780Z,55.25
2022-08-17T02:51:14.626Z,55.15
2022-08-17T02:53:41.348Z,55.42
2022-08-17T02:56:08.086Z,54.93
2022-08-17T02:58:36.099Z,55.08
2022-08-17T03:01:06.309Z,55.40
2022-08-17T03:03:33.410Z,55.21
2022-08-17T03:06:00.041Z,55.27
2022-08-17T03:08:27.285Z,55.30
2022-08-17T03:10:54.138Z,55.49
2022-08-17T03:13:20.832Z,55.64
2022-08-17T03:15:47.971Z,55.71
2022-08-17T03:18:24.486Z,56.29
2022-08-17T03:20:52.494Z,56.55
2022-08-17T03:23:19.117Z,56.51
2022-08-17T03:25:53.062Z,56.76
2022-08-17T03:28:20.570Z,56.44
2022-08-17T03:30:47.284Z,56.54
2022-08-17T03:33:14.177Z,56.53
2022-08-17T03:35:41.132Z,56.13
2022-08-17T03:38:10.143Z,55.85
2022-08-17T03:40:56.705Z,55.69
2022-08-17T03:43:24.059Z,55.34
2022-08-17T03:46:10.779Z,55.53
2022-08-17T03:49:12.612Z,55.48
2022-08-17T03:51:57.863Z,55.59
2022-08-17T03:54:43.207Z,55.25
2022-08-17T03:57:11.243Z,55.29
2022-08-17T03:59:39.105Z,55.49
2022-08-17T04:02:19.406Z,55.60
2022-08-17T04:04:46.626Z,55.30
2022-08-17T04:07:13.228Z,55.20
2022-08-17T04:09:39.836Z,55.41
2022-08-17T04:12:06.761Z,55.39
2022-08-17T04:14:53.347Z,55.40
2022-08-17T04:17:26.924Z,55.50
2022-08-17T04:19:54.704Z,55.59
2022-08-17T04:22:30.069Z,55.79
2022-08-17T04:25:01.202Z,56.08
2022-08-17T04:27:27.823Z,56.43
2022-08-17T04:29:55.955Z,56.73
2022-08-17T04:33:00.516Z,56.61
2022-08-17T04:35:10.729Z,56.54
2022-08-17T04:37:37.341Z,56.77
2022-08-17T04:40:27.147Z,57.21
2022-08-17T04:43:05.264Z,57.22
2022-08-17T04:45:32.545Z,57.28
2022-08-17T04:48:00.511Z,57.35
2022-08-17T04:50:27.640Z,57.09
2022-08-17T04:52:54.414Z,56.75
2022-08-17T04:55:21.385Z,56.32
2022-08-17T04:57:47.990Z,56.46
2022-08-17T05:00:14.846Z,56.14
2022-08-17T05:02:49.910Z,56.20
2022-08-17T05:05:22.320Z,56.03
2022-08-17T05:07:52.560Z,56.30
2022-08-17T05:10:20.055Z,56.24
2022-08-17T05:12:46.907Z,56.96
2022-08-17T05:15:16.162Z,57.43
2022-08-17T05:17:43.824Z,57.66
2022-08-17T05:20:10.859Z,57.98
2022-08-17T05:22:47.502Z,58.44
2022-08-17T05:25:14.486Z,58.17
2022-08-17T05:27:41.663Z,58.24
2022-08-17T05:30:10.147Z,58.26
2022-08-17T05:32:40.315Z,57.51
2022-08-17T05:35:07.647Z,57.29
2022-08-17T05:37:34.270Z,57.11
2022-08-17T05:40:00.988Z,57.15
2022-08-17T05:42:27.769Z,57.62
2022-08-17T05:44:57.790Z,57.80
2022-08-17T05:47:25.463Z,58.00
2022-08-17T05:49:53.772Z,57.89
2022-08-17T05:52:26.011Z,58.28
2022-08-17T05:55:01.300Z,58.40
2022-08-17T05:57:56.106Z,58.32
2022-08-17T06:00:30.813Z,58.53
2022-08-17T06:03:29.014Z,58.17
2022-08-17T06:06:13.774Z,58.02
2022-08-17T06:09:33.797Z,58.40
2022-08-17T06:12:20.080Z,58.23
2022-08-17T06:15:02.323Z,58.37
2022-08-17T06:17:29.631Z,58.46
2022-08-17T06:19:59.767Z,58.65
2022-08-17T06:22:28.767Z,58.78
2022-08-17T06:24:57.198Z,58.51
2022-08-17T06:27:37.326Z,58.18
2022-08-17T06:30:27.202Z,58.15
2022-08-17T06:32:56.234Z,58.27
2022-08-17T06:35:34.096Z,58.48
2022-08-17T06:38:37.098Z,58.33
2022-08-17T06:41:16.479Z,58.79
2022-08-17T06:43:48.811Z,58.66
2022-08-17T06:46:36.222Z,58.90
2022-08-17T06:49:08.937Z,58.85
2022-08-17T06:51:40.591Z,59.17
2022-08-17T06:54:28.529Z,58.89
2022-08-17T06:57:25.438Z,58.94
2022-08-17T07:00:07.575Z,59.05
2022-08-17T07:02:52.051Z,59.44
2022-08-17T07:05:22.822Z,59.79
2022-08-17T07:08:07.927Z,59.85
2022-08-17T07:10:38.317Z,60.07
2022-08-17T07:13:42.172Z,59.79
2022-08-17T07:16:22.231Z,60.55
2022-08-17T07:18:51.211Z,60.63
2022-08-17T07:21:26.764Z,61.08
2022-08-17T07:24:30.747Z,60.81
2022-08-17T07:27:27.495Z,61.59
2022-08-17T07:30:11.442Z,61.52
2022-08-17T07:32:48.043Z,60.31
2022-08-17T07:35:40.775Z,60.59
2022-08-17T07:38:28.978Z,60.55
2022-08-17T07:41:01.133Z,60.13
2022-08-17T07:43:31.186Z,59.78
2022-08-17T07:46:19.246Z,59.65
2022-08-17T07:48:49.811Z,59.36
2022-08-17T07:51:17.933Z,59.43
2022-08-17T07:53:45.361Z,59.47
2022-08-17T07:56:34.632Z,59.54
2022-08-17T07:59:30.007Z,59.66
2022-08-17T08:02:06.751Z,59.72
2022-08-17T08:05:02.285Z,59.60
2022-08-17T08:07:34.715Z,60.06
2022-08-17T08:10:15.257Z,60.15
2022-08-17T08:12:46.871Z,59.75
2022-08-17T08:15:18.673Z,59.87
2022-08-17T08:17:52.587Z,60.12
2022-08-17T08:20:51.833Z,59.83
2022-08-17T08:23:39.552Z,60.03
2022-08-17T08:26:26.445Z,59.86
2022-08-17T08:29:15.383Z,60.20
2022-08-17T08:31:46.572Z,60.11
2022-08-17T08:34:58.678Z,60.05
2022-08-17T08:38:01.394Z,60.26
2022-08-17T08:40:40.142Z,60.10
2022-08-17T08:43:22.647Z,59.59
2022-08-17T08:46:07.654Z,59.57
2022-08-17T08:49:59.086Z,59.77
2022-08-17T08:52:25.713Z,59.65
2022-08-17T08:55:07.616Z,59.81
2022-08-17T08:57:38.814Z,59.73
2022-08-17T09:00:17.490Z,58.96
2022-08-17T09:03:03.046Z,59.06
2022-08-17T09:06:06.858Z,59.05
2022-08-17T09:09:07.025Z,59.43
2022-08-17T09:12:02.543Z,59.36
2022-08-17T09:14:46.900Z,59.36
2022-08-17T09:17:22.191Z,59.29
2022-08-17T09:19:54.720Z,59.29
2022-08-17T09:22:37.304Z,59.53
2022-08-17T09:25:11.245Z,59.72
2022-08-17T09:28:00.950Z,59.40
2022-08-17T09:30:36.244Z,59.46
2022-08-17T09:33:22.926Z,59.34
2022-08-17T09:36:12.270Z,59.52
2022-08-17T09:39:00.220Z,59.19
2022-08-17T09:41:49.304Z,59.12
2022-08-17T09:44:27.277Z,58.78
2022-08-17T09:46:59.354Z,58.78
2022-08-17T09:49:38.574Z,58.37
2022-08-17T09:52:14.711Z,58.48
2022-08-17T09:54:45.286Z,58.18
2022-08-17T09:57:49.369Z,58.03
2022-08-17T10:00:23.759Z,57.56
2022-08-17T10:03:28.281Z,57.33
2022-08-17T10:06:10.860Z,57.24
2022-08-17T10:09:06.460Z,57.00
2022-08-17T10:11:55.292Z,57.29
2022-08-17T10:14:43.766Z,56.80
2022-08-17T10:17:23.231Z,56.65
2022-08-17T10:20:27.515Z,56.98
2022-08-17T10:23:19.687Z,56.54
2022-08-17T10:26:08.925Z,56.61
2022-08-17T10:28:59.664Z,56.45
2022-08-17T10:31:38.665Z,56.45
2022-08-17T10:34:05.220Z,56.05
2022-08-17T10:36:34.609Z,56.10
2022-08-17T10:39:19.827Z,55.96
2022-08-17T10:41:50.459Z,55.76
2022-08-17T10:44:45.696Z,56.07
2022-08-17T10:47:15.390Z,56.03
2022-08-17T10:49:47.943Z,56.27
2022-08-17T10:52:20.438Z,55.78
2022-08-17T10:54:48.792Z,55.76
2022-08-17T10:57:27.404Z,55.71
2022-08-17T10:59:55.854Z,55.71
2022-08-17T11:02:23.162Z,56.09
2022-08-17T11:05:07.990Z,55.79
2022-08-17T11:07:58.530Z,56.29
2022-08-17T11:10:46.419Z,56.12
2022-08-17T11:13:33.686Z,56.01
2022-08-17T11:16:28.079Z,56.00
2022-08-17T11:19:25.169Z,56.07
2022-08-17T11:22:33.356Z,56.04
2022-08-17T11:25:14.370Z,55.94
2022-08-17T11:27:42.332Z,55.92
2022-08-17T11:30:13.249Z,55.92
2022-08-17T11:32:54.323Z,55.54
2022-08-17T11:35:21.445Z,55.12
2022-08-17T11:37:53.689Z,55.16
2022-08-17T11:40:46.509Z,54.76
2022-08-17T11:43:31.012Z,54.93
2022-08-17T11:46:16.040Z,54.47
2022-08-17T11:49:03.031Z,54.57
2022-08-17T11:51:59.413Z,54.60
2022-08-17T11:54:33.781Z,54.57
2022-08-17T11:57:21.506Z,54.76
2022-08-17T11:59:48.076Z,54.67
2022-08-17T12:02:32.998Z,54.44
2022-08-17T12:05:14.512Z,54.51
2022-08-17T12:07:48.245Z,54.43
2022-08-17T12:10:18.352Z,54.37
2022-08-17T12:12:45.946Z,54.07
2022-08-17T12:15:27.650Z,53.84
2022-08-17T12:17:56.733Z,53.86
2022-08-17T12:20:32.610Z,53.75
2022-08-17T12:23:17.282Z,53.41
2022-08-17T12:26:07.243Z,53.71
2022-08-17T12:28:36.163Z,53.87
2022-08-17T12:31:06.384Z,53.26
2022-08-17T12:33:33.579Z,53.82
2022-08-17T12:36:03.510Z,53.79
2022-08-17T12:38:34.483Z,53.49
2022-08-17T12:41:23.661Z,53.92
2022-08-17T12:44:14.907Z,53.75
2022-08-17T12:46:55.530Z,53.17
2022-08-17T12:49:29.638Z,53.62
2022-08-17T12:52:06.640Z,53.44
2022-08-17T12:54:51.420Z,53.86
2022-08-17T12:57:24.670Z,53.19
2022-08-17T13:00:16.293Z,52.96
2022-08-17T13:02:46.866Z,52.78
2022-08-17T13:05:27.719Z,53.25
2022-08-17T13:07:56.159Z,53.18
2022-08-17T13:10:33.085Z,53.67
2022-08-17T13:13:05.934Z,53.48
2022-08-17T13:15:44.824Z,53.32
2022-08-17T13:18:30.140Z,53.70
2022-08-17T13:20:58.985Z,53.92
2022-08-17T13:23:29.245Z,53.90
2022-08-17T13:25:58.561Z,54.01
2022-08-17T13:28:30.745Z,53.71
2022-08-17T13:31:24.142Z,53.74
2022-08-17T13:33:50.922Z,53.73
2022-08-17T13:36:30.204Z,53.49
2022-08-17T13:39:26.235Z,54.20
2022-08-17T13:41:56.058Z,54.32
2022-08-17T13:44:39.247Z,54.21
2022-08-17T13:47:16.515Z,53.38
2022-08-17T13:49:48.723Z,52.95
2022-08-17T13:52:37.963Z,53.23
2022-08-17T13:55:17.280Z,53.06
2022-08-17T13:57:48.610Z,53.37
2022-08-17T14:00:31.667Z,53.22
2022-08-17T14:03:00.050Z,53.61
2022-08-17T14:05:26.948Z,53.55
2022-08-17T14:07:59.026Z,53.44
2022-08-17T14:10:26.861Z,53.01
2022-08-17T14:12:53.610Z,53.03
2022-08-17T14:15:22.626Z,53.00
2022-08-17T14:17:49.705Z,53.17
2022-08-17T14:20:19.418Z,53.37
2022-08-17T14:22:49.546Z,53.46
2022-08-17T14:25:23.130Z,53.02
2022-08-17T14:27:53.686Z,52.89
2022-08-17T14:30:26.724Z,51.95
2022-08-17T14:32:56.432Z,52.20
2022-08-17T14:35:24.384Z,52.22
2022-08-17T14:37:52.160Z,52.35
2022-08-17T14:40:20.858Z,52.05
2022-08-17T14:42:48.087Z,51.83
2022-08-17T14:45:30.368Z,51.65
2022-08-17T14:48:01.036Z,52.22
2022-08-17T14:50:27.622Z,52.01
2022-08-17T14:52:56.049Z,51.84
2022-08-17T14:55:24.964Z,51.64
2022-08-17T14:57:51.761Z,52.33
2022-08-17T15:00:18.809Z,52.74
2022-08-17T15:02:58.327Z,52.18
2022-08-17T15:05:28.370Z,51.95
2022-08-17T15:07:55.791Z,52.33
2022-08-17T15:10:23.398Z,52.31
2022-08-17T15:12:51.330Z,52.70
2022-08-17T15:15:18.078Z,51.33
2022-08-17T15:17:45.901Z,51.01
2022-08-17T15:20:19.459Z,51.04
2022-08-17T15:22:49.716Z,51.35
2022-08-17T15:25:17.632Z,51.46
2022-08-17T15:27:44.350Z,52.25
2022-08-17T15:30:11.790Z,52.08
2022-08-17T15:32:40.634Z,52.17
2022-08-17T15:35:09.181Z,52.54
2022-08-17T15:37:37.401Z,52.37
2022-08-17T15:40:05.437Z,52.42
2022-08-17T15:42:32.419Z,51.93
2022-08-17T15:44:59.915Z,52.44
2022-08-17T15:47:26.566Z,52.18
2022-08-17T15:49:57.969Z,52.31
2022-08-17T15:52:28.406Z,52.43
2022-08-17T15:55:00.535Z,52.37
2022-08-17T15:57:27.792Z,52.21
2022-08-17T15:59:58.938Z,51.89
2022-08-17T16:03:44.544Z,51.68
2022-08-17T16:05:24.971Z,51.91
2022-08-17T16:07:52.599Z,51.97
2022-08-17T16:10:19.881Z,51.75
2022-08-17T16:12:47.971Z,51.88
2022-08-17T16:15:15.432Z,52.47
2022-08-17T16:17:42.349Z,52.34
2022-08-17T16:20:10.463Z,52.61
2022-08-17T16:22:47.765Z,51.84
2022-08-17T16:25:19.561Z,52.36
2022-08-17T16:27:48.746Z,52.08
2022-08-17T16:30:17.597Z,52.07
2022-08-17T16:32:46.241Z,52.06
2022-08-17T16:35:17.415Z,52.52
2022-08-17T16:37:45.677Z,52.78
2022-08-17T16:40:14.067Z,52.88
2022-08-17T16:42:42.846Z,52.89
2022-08-17T16:45:13.177Z,52.37
2022-08-17T16:47:41.179Z,52.38
2022-08-17T16:50:09.122Z,52.67
2022-08-17T16:52:36.566Z,52.93
2022-08-17T16:55:04.560Z,52.53
2022-08-17T16:57:31.975Z,52.65
2022-08-17T16:59:58.722Z,52.43
2022-08-17T17:02:26.653Z,53.00
2022-08-17T17:05:13.959Z,52.99
2022-08-17T17:08:12.829Z,52.78
2022-08-17T17:10:43.736Z,52.85
2022-08-17T17:13:33.367Z,52.99
2022-08-17T17:16:15.177Z,52.81
2022-08-17T17:18:58.095Z,52.89
2022-08-17T17:21:32.894Z,53.11
2022-08-17T17:24:04.645Z,53.46
2022-08-17T17:26:45.653Z,53.60
2022-08-17T17:29:47.855Z,53.05
2022-08-17T17:32:31.030Z,53.20
2022-08-17T17:35:04.724Z,54.21
2022-08-17T17:37:34.012Z,54.21
2022-08-17T17:40:09.585Z,54.45
2022-08-17T17:42:40.004Z,54.18
2022-08-17T17:45:19.914Z,54.43
2022-08-17T17:47:46.903Z,54.71
2022-08-17T17:50:14.148Z,54.50
2022-08-17T17:52:47.300Z,54.26
2022-08-17T17:55:35.389Z,54.38
2022-08-17T17:58:20.756Z,55.10
2022-08-17T18:01:01.183Z,55.25
2022-08-17T18:03:53.860Z,54.84
2022-08-17T18:06:45.506Z,54.84
2022-08-17T18:09:24.013Z,54.92
2022-08-17T18:12:08.681Z,55.28
2022-08-17T18:15:03.900Z,54.94
2022-08-17T18:17:31.030Z,55.72
2022-08-17T18:19:57.687Z,55.43
2022-08-17T18:22:25.257Z,55.90
2022-08-17T18:24:56.151Z,55.44
2022-08-17T18:27:35.488Z,55.62
2022-08-17T18:30:24.089Z,55.79
2022-08-17T18:32:50.720Z,55.52
2022-08-17T18:35:21.400Z,55.53
2022-08-17T18:37:51.294Z,55.37
2022-08-17T18:40:18.467Z,55.59
2022-08-17T18:42:55.594Z,55.45
2022-08-17T18:45:43.804Z,55.87
2022-08-17T18:48:49.391Z,55.51
2022-08-17T18:51:40.573Z,56.17
2022-08-17T18:54:24.850Z,55.86
2022-08-17T18:56:57.429Z,55.44
2022-08-17T18:59:45.256Z,56.46
2022-08-17T19:02:20.731Z,56.18
2022-08-17T19:05:09.858Z,56.13
2022-08-17T19:07:47.185Z,56.20
2022-08-17T19:10:16.745Z,56.35
2022-08-17T19:13:00.242Z,56.68
2022-08-17T19:15:34.006Z,56.18
2022-08-17T19:18:15.463Z,56.08
2022-08-17T19:20:48.782Z,56.25
2022-08-17T19:23:31.570Z,56.36
2022-08-17T19:26:01.601Z,56.83
2022-08-17T19:28:48.003Z,56.75
2022-08-17T19:31:22.595Z,57.06
2022-08-17T19:33:49.438Z,58.31
2022-08-17T19:36:40.403Z,57.80
2022-08-17T19:39:38.347Z,57.93
2022-08-17T19:42:28.570Z,58.23
2022-08-17T19:45:46.494Z,57.79
2022-08-17T19:48:19.869Z,57.75
2022-08-17T19:50:56.613Z,57.70
2022-08-17T19:53:47.411Z,57.39
2022-08-17T19:56:42.139Z,56.64
2022-08-17T19:59:27.370Z,56.53
2022-08-17T20:02:32.862Z,56.40
2022-08-17T20:05:02.859Z,56.82
2022-08-17T20:07:57.050Z,56.31
2022-08-17T20:10:57.932Z,56.60
2022-08-17T20:13:34.091Z,56.21
2022-08-17T20:16:01.618Z,56.15
2022-08-17T20:18:37.672Z,56.89
2022-08-17T20:21:44.804Z,56.72
2022-08-17T20:24:19.014Z,56.56
2022-08-17T20:26:58.964Z,56.11
2022-08-17T20:29:51.514Z,55.74
2022-08-17T20:32:24.097Z,56.53
2022-08-17T20:35:04.279Z,56.52
2022-08-17T20:37:33.303Z,56.21
2022-08-17T20:39:59.907Z,56.22
2022-08-17T20:42:27.818Z,56.04
2022-08-17T20:45:01.675Z,55.23
2022-08-17T20:47:34.542Z,55.04
2022-08-17T20:50:04.478Z,55.55
2022-08-17T20:52:47.422Z,55.36
2022-08-17T20:55:52.332Z,54.71
2022-08-17T20:58:30.636Z,55.50
2022-08-17T21:00:58.617Z,55.32
2022-08-17T21:03:26.745Z,55.42
2022-08-17T21:06:00.223Z,55.25
2022-08-17T21:08:33.440Z,55.57
2022-08-17T21:11:21.541Z,56.00
2022-08-17T21:14:10.984Z,55.90
2022-08-17T21:17:05.857Z,55.60
2022-08-17T21:20:11.351Z,55.62
2022-08-17T21:22:58.542Z,55.67
2022-08-17T21:25:50.086Z,56.07
2022-08-17T21:28:23.124Z,55.89
2022-08-17T21:31:08.464Z,55.84
2022-08-17T21:33:39.593Z,55.81
2022-08-17T21:36:12.257Z,55.64
2022-08-17T21:38:47.804Z,55.69
2022-08-17T21:41:35.639Z,55.24
2022-08-17T21:44:13.274Z,55.04
2022-08-17T21:46:42.980Z,54.93
2022-08-17T21:49:16.817Z,54.80
2022-08-17T21:51:56.764Z,54.95
2022-08-17T21:54:33.932Z,55.61
2022-08-17T21:57:02.478Z,55.32
2022-08-17T21:59:32.944Z,55.04
2022-08-17T22:02:01.675Z,55.03
2022-08-17T22:04:37.942Z,54.90
2022-08-17T22:07:15.187Z,55.38
2022-08-17T22:09:46.940Z,55.38
2022-08-17T22:12:19.142Z,55.78
2022-08-17T22:14:56.084Z,55.55
2022-08-17T22:17:40.040Z,55.74
2022-08-17T22:20:14.433Z,55.19
2022-08-17T22:23:08.673Z,55.18
2022-08-17T22:25:38.310Z,54.98
2022-08-17T22:28:08.062Z,54.85
2022-08-17T22:30:41.653Z,55.12
2022-08-17T22:33:32.882Z,55.12
2022-08-17T22:36:13.747Z,55.05
2022-08-17T22:38:41.926Z,55.66
2022-08-17T22:41:52.048Z,55.19
2022-08-17T22:44:29.548Z,55.17
2022-08-17T22:47:00.006Z,54.86
2022-08-17T22:49:53.767Z,55.18
2022-08-17T22:52:32.152Z,55.60
2022-08-17T22:55:35.153Z,55.57
2022-08-17T22:58:21.021Z,55.80
2022-08-17T23:00:49.124Z,55.68
2022-08-17T23:03:22.393Z,55.84
2022-08-17T23:06:10.643Z,55.90
2022-08-17T23:08:54.648Z,56.18
2022-08-17T23:11:42.921Z,55.88
2022-08-17T23:14:13.354Z,55.94
2022-08-17T23:16:43.528Z,56.26
2022-08-17T23:19:11.349Z,56.14
2022-08-17T23:21:38.039Z,56.01
2022-08-17T23:24:05.817Z,55.92
2022-08-17T23:26:39.226Z,56.12
2022-08-17T23:29:06.700Z,56.05
2022-08-17T23:31:37.256Z,55.71
2022-08-17T23:34:04.897Z,55.39
2022-08-17T23:36:34.678Z,55.18
2022-08-17T23:39:01.351Z,55.45
2022-08-17T23:41:31.907Z,55.16
2022-08-17T23:43:59.422Z,55.46
2022-08-17T23:46:26.047Z,55.49
2022-08-17T23:48:54.239Z,55.36
2022-08-17T23:51:24.169Z,55.47
2022-08-17T23:53:55.221Z,55.80
2022-08-17T23:56:26.096Z,55.85
2022-08-17T23:58:54.901Z,55.82
